RJAW/IWO METAR and TAF weather

Enter ICAO airport designator
Station Type Date Time Source
RJAW METAR 2019/08/22 09:00 UTC NOAA

RJAW 220900Z 03007KT 9999 FEW015 28/24 Q1013 RMK 2CU015 A2991


Station Type Date Time Source
RJAW Decoded METAR 2019/08/22 09:00 UTC NOAA

Station name not available
Aug 22, 2019 - 05:00 AM EDT / 2019.08.22 0900 UTC
Wind: from the NNE (030 degrees) at 8 MPH (7 KT):0
Visibility: greater than 7 mile(s):0
Sky conditions: mostly clear
Temperature: 82 F (28 C)
Dew Point: 75 F (24 C)
Relative Humidity: 78%
Pressure (altimeter): 29.91 in. Hg (1013 hPa)
ob: RJAW 220900Z 03007KT 9999 FEW015 28/24 Q1013 RMK 2CU015 A2991
cycle: 9

Station Type Date Time Source
RJAW TAF UTC NOAA

Error!

Example: see airport list